Terminal Aerodrome Forecast
Issued by NWS

Home | Current Version | Previous Version | Text Only | Print | Product List | Glossary On
Versions: 1 2 3 4 5 6 7 8 9 10 11 12 13 14 15 16
000
FTUS43 KICT 302335
TAFCNU
TAF
KCNU 302335Z 3100/3124 19006KT P6SM FEW250
     FM311100 VRB03KT 3SM BR SCT018
     FM311400 03004KT P6SM FEW022 SCT250
     FM311600 09007KT P6SM FEW150=

USA.gov is the U.S. government's official web portal to all federal, state and local government web resources and services.